Time;durP1;ratioP1;P1;durP2;ratioP2;P2;SDS_P1;SDS_P2;PMS_P1;PMS_P2;Temp;Humidity;BMP_temperature;BMP_pressure;BME280_temperature;BME280_humidity;BME280_pressure;Samples;Min_cycle;Max_cycle;Signal;HPM_P1;HPM_P2
2022/06/01 00:00:40;;;;;;;3.40;2.03;;;;;;;20.08;52.28;100074.25;4977478;28;20177;-71
2022/06/01 00:03:07;;;;;;;3.50;2.20;;;;;;;20.07;52.32;100072.59;4993427;28;20526;-71
2022/06/01 00:05:33;;;;;;;3.73;2.17;;;;;;;20.06;52.16;100070.91;4977110;28;20233;-73
2022/06/01 00:07:58;;;;;;;3.50;1.90;;;;;;;20.07;52.41;100069.72;4993781;28;20777;-73
2022/06/01 00:10:24;;;;;;;3.70;2.30;;;;;;;20.08;52.10;100074.25;4993272;28;20574;-71
2022/06/01 00:12:49;;;;;;;3.37;2.27;;;;;;;20.08;52.26;100076.28;5009772;28;20205;-74
2022/06/01 00:15:15;;;;;;;4.20;2.37;;;;;;;20.08;52.15;100073.44;4975765;28;20184;-73
2022/06/01 00:17:41;;;;;;;3.13;2.03;;;;;;;20.06;52.18;100068.06;4987753;28;20190;-71
2022/06/01 00:20:07;;;;;;;3.70;2.40;;;;;;;20.08;52.29;100079.16;4994988;28;20427;-73
2022/06/01 00:22:32;;;;;;;3.73;2.20;;;;;;;20.07;52.06;100078.31;4995235;28;20187;-71
2022/06/01 00:24:57;;;;;;;3.50;2.13;;;;;;;20.07;52.07;100075.47;5008380;28;20185;-74
2022/06/01 00:27:23;;;;;;;3.63;2.43;;;;;;;20.06;52.31;100070.91;4976128;28;20184;-71
2022/06/01 00:29:48;;;;;;;4.57;2.70;;;;;;;20.06;52.07;100079.53;4976181;28;20265;-71
2022/06/01 00:32:17;;;;;;;3.43;1.93;;;;;;;20.06;52.32;100075.84;4992960;28;20227;-71
2022/06/01 00:34:42;;;;;;;3.53;2.40;;;;;;;20.06;51.99;100084.44;4977832;28;20183;-71
2022/06/01 00:37:08;;;;;;;3.03;1.93;;;;;;;20.06;52.32;100075.84;4993341;28;20518;-71
2022/06/01 00:39:34;;;;;;;4.03;2.70;;;;;;;20.06;52.04;100081.59;4960209;28;20179;-73
2022/06/01 00:42:15;;;;;;;3.97;2.20;;;;;;;20.06;52.20;100076.66;4992490;28;20177;-71
2022/06/01 00:44:40;;;;;;;3.90;2.47;;;;;;;20.06;52.20;100079.53;4974527;28;20799;-74
2022/06/01 00:47:06;;;;;;;3.97;2.13;;;;;;;20.06;52.09;100075.84;4975140;28;20438;-71
2022/06/01 00:49:31;;;;;;;4.07;2.23;;;;;;;20.05;52.41;100074.19;4974251;28;20181;-73
2022/06/01 00:51:56;;;;;;;4.33;2.70;;;;;;;20.05;52.04;100075.00;4990810;28;20205;-73
2022/06/01 00:54:22;;;;;;;6.00;2.60;;;;;;;20.05;51.99;100069.28;4973050;28;20173;-71
2022/06/01 00:56:53;;;;;;;3.60;2.17;;;;;;;20.05;52.05;100072.16;4976277;28;20181;-73
2022/06/01 00:59:20;;;;;;;5.43;2.50;;;;;;;20.05;52.07;100072.16;4992419;28;20181;-73
2022/06/01 01:01:46;;;;;;;3.30;2.70;;;;;;;20.04;52.02;100073.38;4960200;28;20443;-71
2022/06/01 01:04:12;;;;;;;4.90;2.70;;;;;;;20.04;51.85;100067.66;4976634;28;20440;-73
2022/06/01 01:06:41;;;;;;;3.77;2.13;;;;;;;20.05;52.26;100066.41;4976417;28;20233;-73
2022/06/01 01:09:08;;;;;;;4.20;2.70;;;;;;;20.05;52.16;100069.28;4976210;28;20180;-71
2022/06/01 01:11:36;;;;;;;4.77;2.77;;;;;;;20.03;52.25;100066.00;4964536;28;20991;-71
2022/06/01 01:14:02;;;;;;;3.50;2.10;;;;;;;20.03;52.01;100063.13;4956430;28;20464;-71
2022/06/01 01:16:28;;;;;;;6.40;2.40;;;;;;;20.03;51.57;100063.13;4961755;28;20421;-73
2022/06/01 01:18:54;;;;;;;4.17;2.20;;;;;;;20.03;52.36;100063.13;4995563;28;20415;-71
2022/06/01 01:21:40;;;;;;;5.00;2.33;;;;;;;20.04;52.34;100058.22;4994871;28;20195;-71
2022/06/01 01:24:13;;;;;;;5.33;2.07;;;;;;;20.05;51.91;100065.59;5011764;28;20214;-73
2022/06/01 01:26:38;;;;;;;3.57;2.10;;;;;;;20.04;52.26;100066.81;4976069;28;20545;-73
2022/06/01 01:29:09;;;;;;;3.30;1.87;;;;;;;20.04;52.33;100067.66;4959011;28;20448;-71
2022/06/01 01:31:35;;;;;;;3.23;2.40;;;;;;;20.04;52.27;100069.66;4976417;28;20201;-72
2022/06/01 01:34:00;;;;;;;4.33;2.27;;;;;;;20.03;52.35;100071.72;4976261;28;20430;-72
2022/06/01 01:36:31;;;;;;;5.20;2.80;;;;;;;20.02;51.78;100070.06;4976078;28;20192;-72
2022/06/01 01:39:05;;;;;;;3.33;2.23;;;;;;;20.03;52.07;100068.88;4975794;28;20180;-73
2022/06/01 01:41:54;;;;;;;4.67;2.53;;;;;;;20.03;52.24;100066.00;4960965;28;20962;-73
2022/06/01 01:44:19;;;;;;;3.70;2.30;;;;;;;20.03;52.43;100068.88;5008980;28;20440;-72
2022/06/01 01:46:47;;;;;;;3.40;2.30;;;;;;;20.02;52.49;100058.59;4991190;28;20796;-73
2022/06/01 01:49:24;;;;;;;4.23;2.57;;;;;;;20.02;52.38;100058.59;4975474;28;20184;-73
2022/06/01 01:51:51;;;;;;;4.20;2.70;;;;;;;20.03;52.37;100063.13;4975975;28;20464;-72
2022/06/01 01:54:19;;;;;;;5.50;2.70;;;;;;;20.03;52.42;100060.28;4959564;28;20438;-74
2022/06/01 01:56:55;;;;;;;3.50;2.10;;;;;;;20.04;52.16;100061.06;4981444;28;20513;-71
2022/06/01 01:59:55;;;;;;;4.73;2.50;;;;;;;20.02;52.31;100070.06;4973460;28;20451;-71
2022/06/01 02:02:30;;;;;;;3.90;2.57;;;;;;;20.02;52.48;100063.53;4972372;28;20915;-72
2022/06/01 02:07:54;;;;;;;3.50;2.10;;;;;;;20.01;52.16;100068.41;4975696;28;20404;-73
2022/06/01 02:13:04;;;;;;;4.13;2.23;;;;;;;20.01;52.39;100074.16;4974931;28;20464;-72
2022/06/01 02:15:33;;;;;;;3.97;2.57;;;;;;;20.02;52.14;100070.06;4955991;28;20804;-73
2022/06/01 02:18:01;;;;;;;3.43;2.37;;;;;;;20.02;52.18;100063.53;5001984;28;20520;-73
2022/06/01 02:20:33;;;;;;;3.70;2.37;;;;;;;20.01;52.30;100067.63;4993495;28;20415;-73
2022/06/01 02:23:00;;;;;;;3.97;2.67;;;;;;;20.01;52.26;100068.41;4993721;28;20480;-73
2022/06/01 02:25:25;;;;;;;4.13;2.80;;;;;;;20.01;52.32;100068.41;5009884;28;20420;-71
2022/06/01 02:27:51;;;;;;;4.90;2.47;;;;;;;20.01;52.49;100062.69;4971148;28;20487;-71
2022/06/01 02:30:50;;;;;;;5.10;2.80;;;;;;;20.01;52.38;100068.41;4954351;28;20185;-72
2022/06/01 02:33:19;;;;;;;3.57;2.37;;;;;;;20.03;52.04;100065.16;4979958;28;20839;-71
2022/06/01 02:35:48;;;;;;;3.00;2.00;;;;;;;20.01;52.49;100059.81;4964086;28;20485;-73
2022/06/01 02:38:17;;;;;;;3.83;2.17;;;;;;;20.02;52.21;100061.47;4975113;28;20788;-71
2022/06/01 02:40:42;;;;;;;3.80;2.37;;;;;;;20.01;52.31;100062.69;4960378;28;20423;-71
2022/06/01 02:43:08;;;;;;;4.27;2.40;;;;;;;20.01;52.30;100059.81;4979214;28;20530;-72
2022/06/01 02:45:33;;;;;;;3.20;2.07;;;;;;;20.01;52.19;100062.69;5012804;28;20169;-71
2022/06/01 02:47:59;;;;;;;3.67;2.50;;;;;;;20.02;52.26;100075.78;4962740;28;20817;-73
2022/06/01 02:50:26;;;;;;;3.70;2.67;;;;;;;20.02;52.13;100069.25;4978090;28;20275;-73
2022/06/01 02:52:52;;;;;;;4.30;2.20;;;;;;;20.00;52.33;100066.78;4962635;28;20455;-71
2022/06/01 02:55:17;;;;;;;2.80;2.20;;;;;;;20.01;52.09;100062.69;4979097;28;20845;-74
2022/06/01 02:57:43;;;;;;;3.77;2.53;;;;;;;20.00;52.31;100061.06;4978398;28;20235;-73
2022/06/01 03:00:33;;;;;;;4.00;2.30;;;;;;;20.01;52.10;100062.69;5011714;28;20232;-73
2022/06/01 03:02:59;;;;;;;4.37;2.00;;;;;;;20.01;52.31;100062.69;4995165;28;20154;-71
2022/06/01 03:05:34;;;;;;;3.03;2.23;;;;;;;20.01;52.17;100068.41;4978606;28;20519;-71
2022/06/01 03:07:59;;;;;;;3.90;2.10;;;;;;;20.01;52.21;100065.56;4994870;28;20423;-73
2022/06/01 03:10:25;;;;;;;4.60;2.47;;;;;;;20.02;52.18;100069.25;4977963;28;20423;-73
2022/06/01 03:12:51;;;;;;;4.33;2.30;;;;;;;20.01;52.46;100065.56;4978032;28;20212;-73
2022/06/01 03:15:17;;;;;;;2.67;2.20;;;;;;;20.02;52.13;100069.25;4994555;28;20656;-71
2022/06/01 03:17:43;;;;;;;3.70;2.20;;;;;;;20.01;52.26;100061.88;4994107;28;20177;-73
2022/06/01 03:20:09;;;;;;;3.67;2.60;;;;;;;20.00;52.21;100055.31;4962354;28;20518;-73
2022/06/01 03:22:35;;;;;;;4.53;2.90;;;;;;;20.00;52.39;100066.78;4962096;28;20177;-73
2022/06/01 03:25:02;;;;;;;4.43;2.23;;;;;;;20.01;52.08;100070.50;4977964;28;20435;-73
2022/06/01 03:27:28;;;;;;;4.43;2.30;;;;;;;20.00;52.12;100066.78;4994466;28;20844;-71
2022/06/01 03:29:53;;;;;;;2.93;2.17;;;;;;;20.01;52.20;100067.63;4993825;28;20742;-73
2022/06/01 03:32:19;;;;;;;4.00;2.60;;;;;;;20.00;52.03;100072.50;4961642;28;20209;-73
2022/06/01 03:34:44;;;;;;;4.17;2.13;;;;;;;20.00;52.32;100068.81;5011656;28;20655;-73
2022/06/01 03:37:09;;;;;;;4.03;2.50;;;;;;;20.00;52.26;100072.50;4994376;28;20177;-73
2022/06/01 03:39:35;;;;;;;3.90;2.50;;;;;;;19.99;52.19;100073.75;5011191;28;20192;-73
2022/06/01 03:42:00;;;;;;;3.50;2.20;;;;;;;20.00;52.41;100072.50;4994008;28;20177;-73
2022/06/01 03:47:10;;;;;;;5.77;2.10;;;;;;;19.99;52.00;100076.59;4994703;28;20313;-73
2022/06/01 03:49:36;;;;;;;2.83;1.87;;;;;;;19.99;52.37;100088.06;4975696;28;20911;-73
2022/06/01 03:52:01;;;;;;;6.93;2.80;;;;;;;19.99;52.25;100081.50;4974481;28;20201;-71
2022/06/01 03:54:27;;;;;;;3.67;2.30;;;;;;;19.99;52.24;100084.38;4977591;28;20240;-73
2022/06/01 03:56:53;;;;;;;3.50;2.37;;;;;;;19.98;52.19;100083.56;4977239;28;20438;-73
2022/06/01 03:59:18;;;;;;;4.43;2.40;;;;;;;19.98;52.04;100085.59;4976910;28;20184;-71
2022/06/01 04:01:43;;;;;;;3.90;2.50;;;;;;;19.98;52.07;100079.84;4977601;28;20184;-71
2022/06/01 04:04:09;;;;;;;3.23;2.13;;;;;;;19.98;52.10;100080.69;4977376;28;20204;-71
2022/06/01 04:06:34;;;;;;;3.77;2.00;;;;;;;19.97;51.98;100072.50;4961220;28;20229;-73
2022/06/01 04:09:00;;;;;;;4.53;2.20;;;;;;;19.97;52.02;100076.16;4993017;28;20172;-74
2022/06/01 04:11:25;;;;;;;3.00;2.20;;;;;;;19.97;52.03;100079.03;4993926;28;20180;-72
2022/06/01 04:13:51;;;;;;;4.07;2.23;;;;;;;19.99;52.25;100081.50;4993298;28;20659;-73
2022/06/01 04:16:18;;;;;;;3.90;2.20;;;;;;;19.97;51.91;100087.63;4977349;28;20208;-71
2022/06/01 04:18:47;;;;;;;4.93;2.70;;;;;;;19.97;52.03;100093.34;4993654;28;20158;-71
2022/06/01 04:21:13;;;;;;;4.40;2.60;;;;;;;19.97;52.13;100096.22;5009155;28;20431;-71
2022/06/01 04:23:38;;;;;;;4.43;2.70;;;;;;;19.97;52.16;100098.28;5009590;28;20923;-73
2022/06/01 04:26:04;;;;;;;3.50;2.30;;;;;;;19.96;52.15;100100.31;5008038;28;20443;-73
2022/06/01 04:28:29;;;;;;;5.53;2.60;;;;;;;19.97;52.02;100101.94;4993126;28;20192;-73
2022/06/01 04:30:54;;;;;;;4.20;2.53;;;;;;;19.98;52.14;100097.88;5010280;28;20181;-71
2022/06/01 04:33:20;;;;;;;3.47;2.10;;;;;;;19.98;51.97;100102.78;4959490;28;20266;-73
2022/06/01 04:35:45;;;;;;;4.87;2.60;;;;;;;20.01;52.09;100096.28;4991261;28;20188;-72
2022/06/01 04:38:14;;;;;;;4.70;2.23;;;;;;;20.02;51.79;100104.44;4992108;28;20180;-73
2022/06/01 04:40:43;;;;;;;3.60;2.43;;;;;;;20.03;52.00;100100.41;5009966;28;20185;-73
2022/06/01 04:43:08;;;;;;;2.87;2.03;;;;;;;20.06;51.79;100099.59;4975953;28;20900;-71
2022/06/01 04:45:34;;;;;;;3.70;2.37;;;;;;;20.08;52.12;100104.97;4959469;28;20420;-73
2022/06/01 04:47:59;;;;;;;3.57;2.20;;;;;;;20.09;52.23;100100.88;5010146;28;20185;-73
2022/06/01 04:50:25;;;;;;;4.70;2.40;;;;;;;20.10;52.14;100097.59;4959968;28;20188;-74
2022/06/01 04:52:50;;;;;;;4.77;2.60;;;;;;;20.11;52.34;100089.84;5009736;28;20271;-73
2022/06/01 04:55:16;;;;;;;3.87;2.57;;;;;;;20.12;52.25;100098.03;4990706;28;20424;-73
2022/06/01 04:57:42;;;;;;;6.43;2.60;;;;;;;20.14;52.09;100097.63;4990695;28;20613;-71
2022/06/01 05:00:11;;;;;;;3.13;1.93;;;;;;;20.13;51.92;100105.44;4990261;28;20484;-71
2022/06/01 05:02:36;;;;;;;4.80;2.70;;;;;;;20.15;52.40;100099.28;5007069;28;20173;-73
2022/06/01 05:05:02;;;;;;;3.00;2.33;;;;;;;20.14;52.04;100091.91;4989615;28;20451;-73
2022/06/01 05:07:27;;;;;;;4.63;2.37;;;;;;;20.12;52.26;100086.56;4958239;28;20330;-72
2022/06/01 05:09:53;;;;;;;3.30;2.37;;;;;;;20.13;52.08;100093.13;5009729;28;20173;-73
2022/06/01 05:12:18;;;;;;;4.80;2.47;;;;;;;20.11;52.08;100090.66;4991658;28;20196;-73
2022/06/01 05:14:44;;;;;;;3.37;2.17;;;;;;;20.08;52.41;100094.31;4987627;28;20556;-73
2022/06/01 05:17:09;;;;;;;5.73;2.83;;;;;;;20.08;52.48;100102.94;4994215;28;20180;-72
2022/06/01 05:19:35;;;;;;;5.00;3.40;;;;;;;20.08;52.61;100091.47;5009958;28;20176;-73
2022/06/01 05:22:03;;;;;;;4.50;2.43;;;;;;;20.09;52.57;100093.09;4994201;28;20160;-73
2022/06/01 05:24:29;;;;;;;4.10;2.73;;;;;;;20.09;52.46;100089.41;4994735;28;20187;-71
2022/06/01 05:26:54;;;;;;;4.90;2.30;;;;;;;20.09;52.59;100086.53;4999770;28;20420;-71
2022/06/01 05:29:19;;;;;;;4.07;2.07;;;;;;;20.11;52.34;100090.66;4975472;28;20538;-72
2022/06/01 05:31:45;;;;;;;3.37;2.27;;;;;;;20.12;52.48;100091.47;5009368;28;20554;-72
2022/06/01 05:34:10;;;;;;;5.50;2.20;;;;;;;20.13;52.46;100090.25;4992146;28;20181;-73
2022/06/01 05:36:36;;;;;;;4.10;2.50;;;;;;;20.12;52.30;100089.41;4992443;28;20634;-73
2022/06/01 05:39:03;;;;;;;4.03;2.33;;;;;;;20.13;52.28;100093.13;5009283;28;20219;-73
2022/06/01 05:41:28;;;;;;;2.90;2.03;;;;;;;20.11;52.53;100095.56;4960108;28;20169;-73
2022/06/01 05:43:54;;;;;;;3.63;2.20;;;;;;;20.10;52.40;100093.91;4975725;28;20423;-73
2022/06/01 05:46:21;;;;;;;3.43;2.43;;;;;;;20.11;52.34;100087.78;4992377;28;20181;-73
2022/06/01 05:48:46;;;;;;;3.33;2.30;;;;;;;20.11;52.48;100099.25;4991978;28;20424;-73
2022/06/01 05:51:11;;;;;;;3.20;2.27;;;;;;;20.10;52.59;100100.47;4991028;28;20432;-73
2022/06/01 05:53:37;;;;;;;4.57;2.70;;;;;;;20.10;52.68;100109.06;4991851;28;20635;-73
2022/06/01 05:56:02;;;;;;;4.00;2.37;;;;;;;20.09;52.57;100104.56;5009498;28;20192;-72
2022/06/01 05:58:28;;;;;;;5.73;2.63;;;;;;;20.11;52.50;100107.03;5009789;28;20510;-73
2022/06/01 06:00:54;;;;;;;4.80;2.60;;;;;;;20.11;52.68;100095.56;4975167;28;20604;-73
2022/06/01 06:03:22;;;;;;;4.17;2.80;;;;;;;20.12;52.58;100108.69;4959503;28;20208;-71
2022/06/01 06:08:32;;;;;;;4.73;2.83;;;;;;;20.14;52.44;100098.47;4980852;28;20490;-73
2022/06/01 06:10:57;;;;;;;5.20;2.53;;;;;;;20.18;52.52;100102.19;4991540;28;20425;-71
2022/06/01 06:13:23;;;;;;;3.73;2.40;;;;;;;20.19;52.42;100120.19;4991796;28;20193;-73
2022/06/01 06:15:48;;;;;;;3.20;2.30;;;;;;;20.19;52.69;100109.56;4993277;28;20165;-73
2022/06/01 06:18:14;;;;;;;4.80;2.10;;;;;;;20.18;52.46;100116.53;4979934;28;20176;-73
2022/06/01 06:20:45;;;;;;;4.63;2.60;;;;;;;20.17;52.59;100122.66;5014829;28;20184;-73
2022/06/01 06:23:11;;;;;;;3.73;2.43;;;;;;;20.15;52.58;100114.44;4999151;28;20532;-73
2022/06/01 06:25:38;;;;;;;3.70;2.57;;;;;;;20.13;52.50;100125.50;4997879;28;20423;-71
2022/06/01 06:28:03;;;;;;;3.23;2.20;;;;;;;20.12;52.91;100126.69;4995675;28;20336;-73
2022/06/01 06:30:29;;;;;;;4.83;2.70;;;;;;;20.11;52.88;100125.03;4994464;28;20450;-71
2022/06/01 06:32:54;;;;;;;5.30;2.40;;;;;;;20.09;52.95;100118.91;4979517;28;20247;-71
2022/06/01 06:35:20;;;;;;;4.57;2.30;;;;;;;20.10;52.86;100122.56;5013044;28;20185;-73
2022/06/01 06:37:45;;;;;;;4.00;2.27;;;;;;;20.10;52.94;100126.28;5013050;28;20169;-73
2022/06/01 06:40:11;;;;;;;4.83;2.53;;;;;;;20.09;52.86;100133.22;4978866;28;20177;-71
2022/06/01 06:42:37;;;;;;;4.50;2.40;;;;;;;20.09;53.01;100136.09;4979120;28;20173;-71
2022/06/01 06:45:03;;;;;;;4.37;2.40;;;;;;;20.08;53.11;100137.31;5011282;28;20251;-74
2022/06/01 06:47:30;;;;;;;5.73;2.50;;;;;;;20.09;53.23;100129.53;5012806;28;20177;-71
2022/06/01 06:49:55;;;;;;;5.87;2.80;;;;;;;20.10;53.38;100131.16;4994837;28;20462;-75
2022/06/01 06:52:21;;;;;;;4.63;3.27;;;;;;;20.10;53.15;100139.75;4979018;28;20451;-71
2022/06/01 06:54:46;;;;;;;6.43;2.77;;;;;;;20.11;53.43;100135.69;4994404;28;20640;-71
2022/06/01 06:57:11;;;;;;;5.50;2.50;;;;;;;20.10;53.35;100128.31;4995042;28;20244;-73
2022/06/01 06:59:37;;;;;;;4.40;2.57;;;;;;;20.10;53.43;100132.00;4993972;28;20177;-73
2022/06/01 07:02:03;;;;;;;8.60;3.20;;;;;;;20.10;53.66;100137.72;4994794;28;20177;-73
2022/06/01 07:04:28;;;;;;;6.50;2.57;;;;;;;20.10;53.58;100139.75;4994524;28;20201;-72
2022/06/01 07:06:54;;;;;;;7.10;2.90;;;;;;;20.10;53.52;100139.75;4978728;28;20471;-73
2022/06/01 07:09:19;;;;;;;4.47;3.07;;;;;;;20.09;53.66;100138.97;4994165;28;20239;-72
2022/06/01 07:11:45;;;;;;;4.43;2.90;;;;;;;20.08;53.73;100142.22;4994644;28;20208;-72
2022/06/01 07:14:11;;;;;;;4.90;2.50;;;;;;;20.07;53.63;100141.38;4978416;28;20181;-71
2022/06/01 07:16:36;;;;;;;6.17;2.70;;;;;;;20.08;53.64;100133.63;4981765;28;20180;-73
2022/06/01 07:19:04;;;;;;;4.60;2.60;;;;;;;20.07;53.69;100144.25;4997401;28;20427;-71
2022/06/01 07:21:29;;;;;;;5.30;2.77;;;;;;;20.08;53.89;100142.22;4995053;28;20695;-74
2022/06/01 07:23:55;;;;;;;4.27;2.23;;;;;;;20.07;53.92;100141.38;4978146;28;20412;-71
2022/06/01 07:26:22;;;;;;;4.70;2.87;;;;;;;20.08;53.98;100145.06;4992709;28;20196;-72
2022/06/01 07:28:48;;;;;;;4.93;3.10;;;;;;;20.08;53.92;100140.19;4992594;28;20177;-72
2022/06/01 07:31:13;;;;;;;5.40;2.50;;;;;;;20.09;54.11;100138.13;4992363;28;20819;-71
2022/06/01 07:33:39;;;;;;;4.27;2.40;;;;;;;20.08;54.20;100140.19;4993212;28;20682;-73
2022/06/01 07:36:07;;;;;;;5.70;2.90;;;;;;;20.08;54.23;100143.06;5010159;28;20173;-73
2022/06/01 07:44:07;;;;;;;5.47;3.07;;;;;;;20.07;54.03;100141.38;4983325;28;20451;-73
2022/06/01 07:46:34;;;;;;;4.80;2.80;;;;;;;20.07;54.35;100135.66;4961313;28;20883;-73
2022/06/01 07:48:59;;;;;;;4.67;2.80;;;;;;;20.06;54.18;100128.25;4992113;28;20510;-71
2022/06/01 07:51:25;;;;;;;5.33;2.67;;;;;;;20.07;54.00;100141.38;4992299;28;20439;-72
2022/06/01 07:53:50;;;;;;;3.63;2.30;;;;;;;20.07;54.13;100138.50;4958218;28;20181;-74
2022/06/01 07:56:16;;;;;;;3.63;2.30;;;;;;;20.06;53.83;100141.75;4992102;28;20185;-74
2022/06/01 07:58:41;;;;;;;7.53;2.63;;;;;;;20.07;53.85;100134.81;4976590;28;20231;-72
2022/06/01 08:01:07;;;;;;;5.47;2.50;;;;;;;20.06;53.90;100138.91;4990923;28;20684;-73
2022/06/01 08:03:32;;;;;;;5.10;2.23;;;;;;;20.06;53.71;100139.69;4959754;28;20201;-72
2022/06/01 08:05:58;;;;;;;6.07;2.63;;;;;;;20.05;53.46;100142.97;4972558;28;20693;-72
2022/06/01 08:08:23;;;;;;;4.83;2.40;;;;;;;20.06;53.35;100142.56;4989227;28;20232;-72
2022/06/01 08:10:49;;;;;;;3.30;2.00;;;;;;;20.05;53.19;100132.34;4990505;28;20185;-71
2022/06/01 08:13:14;;;;;;;4.67;2.20;;;;;;;20.06;53.38;100139.69;4956967;28;20213;-74
2022/06/01 08:15:45;;;;;;;4.67;2.40;;;;;;;20.05;52.93;100142.97;4988706;28;20217;-72
2022/06/01 08:18:12;;;;;;;3.40;2.40;;;;;;;20.05;52.94;100149.53;4989491;28;20748;-71
2022/06/01 08:20:37;;;;;;;4.90;2.03;;;;;;;20.06;52.72;100150.38;5009369;28;20428;-73
2022/06/01 08:23:03;;;;;;;4.50;2.70;;;;;;;20.06;52.75;100159.75;4991774;28;20898;-72
2022/06/01 08:25:29;;;;;;;3.60;2.13;;;;;;;20.05;52.57;100163.84;4991686;28;20173;-73
2022/06/01 08:27:54;;;;;;;6.73;2.47;;;;;;;20.05;52.78;100155.25;4973596;28;20219;-71
2022/06/01 08:30:21;;;;;;;4.00;2.10;;;;;;;20.06;52.50;100147.50;4973304;28;20276;-71
2022/06/01 08:32:47;;;;;;;4.67;2.50;;;;;;;20.05;52.36;100155.25;4973274;28;20209;-72
2022/06/01 08:35:14;;;;;;;4.27;2.40;;;;;;;20.05;52.21;100148.69;4973156;28;20420;-73
2022/06/01 08:37:39;;;;;;;3.60;2.27;;;;;;;20.06;52.40;100156.09;4989294;28;20673;-73
2022/06/01 08:40:05;;;;;;;3.23;2.10;;;;;;;20.05;52.25;100158.13;4987315;28;20431;-73
2022/06/01 08:42:31;;;;;;;3.70;2.00;;;;;;;20.07;52.07;100164.31;4955660;28;20185;-71
2022/06/01 08:44:59;;;;;;;6.60;2.27;;;;;;;20.06;51.93;100168.38;4970743;28;20425;-71
2022/06/01 08:47:27;;;;;;;6.40;2.37;;;;;;;20.07;52.00;100160.59;4971874;28;20178;-73
2022/06/01 08:49:55;;;;;;;3.57;2.20;;;;;;;20.07;51.96;100157.75;4955411;28;20429;-71
2022/06/01 08:52:20;;;;;;;3.53;2.20;;;;;;;20.06;51.67;100159.75;4972520;28;20465;-73
2022/06/01 08:54:46;;;;;;;4.13;2.57;;;;;;;20.07;51.44;100164.31;4973194;28;20427;-71
2022/06/01 08:57:15;;;;;;;6.03;2.23;;;;;;;20.06;51.58;100156.09;4989698;28;20181;-73
2022/06/01 08:59:51;;;;;;;2.77;1.80;;;;;;;20.07;51.55;100158.56;4973282;28;20185;-75
2022/06/01 09:02:33;;;;;;;4.87;2.33;;;;;;;20.07;51.45;100146.28;4989409;28;20405;-71
2022/06/01 09:05:21;;;;;;;5.03;2.40;;;;;;;20.08;51.07;100156.53;4991068;28;20808;-74
2022/06/01 09:08:02;;;;;;;4.50;2.20;;;;;;;20.08;51.18;100153.69;4993923;28;20464;-73
2022/06/01 09:11:00;;;;;;;3.00;1.80;;;;;;;20.07;51.07;100154.88;4988626;28;20416;-72
2022/06/01 09:13:47;;;;;;;3.33;1.90;;;;;;;20.09;51.29;100170.47;5004274;28;20467;-73
2022/06/01 09:16:19;;;;;;;3.67;2.20;;;;;;;20.10;50.94;100171.28;4992587;28;20550;-73
2022/06/01 09:18:47;;;;;;;4.60;2.47;;;;;;;20.09;51.07;100159.03;4991300;28;20416;-75
2022/06/01 09:24:07;;;;;;;5.73;2.07;;;;;;;20.12;50.79;100166.00;4995649;28;20942;-72
2022/06/01 09:26:32;;;;;;;3.77;1.80;;;;;;;20.13;50.90;100162.75;4992383;28;20432;-73
2022/06/01 09:28:59;;;;;;;4.00;2.47;;;;;;;20.12;50.64;100161.06;5009256;28;20173;-73
2022/06/01 09:31:32;;;;;;;3.33;2.20;;;;;;;20.12;50.90;100169.69;4959867;28;20612;-73
2022/06/01 09:34:22;;;;;;;6.27;2.60;;;;;;;20.14;50.61;100170.13;5010092;28;20482;-75
2022/06/01 09:37:00;;;;;;;4.80;2.60;;;;;;;20.12;50.74;100166.81;4976441;28;20416;-74
2022/06/01 09:39:26;;;;;;;5.80;2.83;;;;;;;20.13;50.71;100159.03;4976406;28;20412;-71
2022/06/01 09:41:52;;;;;;;5.53;2.30;;;;;;;20.15;50.77;100165.19;4992366;28;20409;-73
2022/06/01 09:44:18;;;;;;;2.43;1.50;;;;;;;20.17;50.69;100163.59;5008616;28;20659;-73
2022/06/01 09:46:46;;;;;;;4.67;1.93;;;;;;;20.17;50.76;100159.91;4971653;28;20435;-73
2022/06/01 09:49:29;;;;;;;5.27;2.20;;;;;;;20.18;50.38;100153.78;4988753;28;20192;-73
2022/06/01 09:52:09;;;;;;;4.20;2.20;;;;;;;20.18;50.54;100156.66;4992346;28;21033;-71
2022/06/01 09:54:37;;;;;;;4.83;2.20;;;;;;;20.18;50.35;100162.38;4977813;28;20518;-71
2022/06/01 09:57:19;;;;;;;5.23;1.97;;;;;;;20.18;50.56;100159.53;4975894;28;20439;-71
2022/06/01 10:08:11;;;;;;;3.00;2.27;;;;;;;20.22;50.43;100160.34;4998726;28;20443;-71
2022/06/01 10:10:36;;;;;;;3.50;2.43;;;;;;;20.24;50.47;100157.09;4963257;28;20771;-71
2022/06/01 10:13:02;;;;;;;5.50;2.40;;;;;;;20.23;50.22;100156.28;4995689;28;20530;-73
2022/06/01 10:15:40;;;;;;;4.33;2.20;;;;;;;20.23;50.15;100158.31;4979588;28;20161;-73
2022/06/01 10:18:14;;;;;;;3.80;2.30;;;;;;;20.23;50.29;100164.91;4979445;28;20608;-72
2022/06/01 10:20:57;;;;;;;3.43;2.40;;;;;;;20.24;50.26;100157.94;5015136;28;20411;-73
2022/06/01 10:23:44;;;;;;;4.27;1.90;;;;;;;20.25;50.48;100150.13;5017752;28;20407;-71
2022/06/01 10:26:29;;;;;;;5.17;2.17;;;;;;;20.28;50.40;100153.06;4993868;28;20516;-73
2022/06/01 10:28:58;;;;;;;4.60;2.83;;;;;;;20.27;50.59;100145.66;4996292;28;20415;-73
2022/06/01 10:31:28;;;;;;;4.70;2.10;;;;;;;20.28;50.52;100152.22;4979100;28;20914;-73
2022/06/01 10:34:01;;;;;;;5.93;2.80;;;;;;;20.30;50.69;100161.25;5012369;28;20892;-71
2022/06/01 10:36:40;;;;;;;4.33;2.20;;;;;;;20.30;50.64;100153.47;4978221;28;20404;-73
2022/06/01 10:39:10;;;;;;;4.37;2.03;;;;;;;20.28;50.66;100153.06;4994237;28;20910;-73
2022/06/01 10:41:38;;;;;;;7.90;2.30;;;;;;;20.29;50.78;100151.00;4993890;28;20930;-73
2022/06/01 10:44:28;;;;;;;4.13;2.70;;;;;;;20.33;50.41;100166.19;4994209;28;21048;-73
2022/06/01 10:47:06;;;;;;;4.10;2.00;;;;;;;20.32;50.55;100148.16;4993412;28;20423;-73
2022/06/01 10:49:56;;;;;;;4.00;2.10;;;;;;;20.30;50.34;100153.47;4979179;28;20559;-71
2022/06/01 10:52:23;;;;;;;5.57;2.23;;;;;;;20.30;50.53;100150.59;4979920;28;21021;-73
2022/06/01 10:55:13;;;;;;;10.33;2.77;;;;;;;20.30;50.52;100156.34;4995014;28;20431;-73
2022/06/01 10:57:41;;;;;;;2.83;1.70;;;;;;;20.31;50.43;100146.50;4975522;28;20519;-73
2022/06/01 11:00:12;;;;;;;4.30;2.03;;;;;;;20.30;50.21;100141.16;4959220;28;20432;-73
2022/06/01 11:03:20;;;;;;;5.70;2.00;;;;;;;20.30;50.10;100150.59;4958387;28;20460;-73
2022/06/01 11:05:56;;;;;;;4.20;2.50;;;;;;;20.32;50.23;100144.47;4992934;28;20461;-75
2022/06/01 11:08:46;;;;;;;5.23;2.37;;;;;;;20.30;50.48;100150.59;4991414;28;20420;-71
2022/06/01 11:11:20;;;;;;;3.20;1.90;;;;;;;20.29;50.39;100142.41;5010097;28;20424;-73
2022/06/01 11:14:06;;;;;;;6.03;2.23;;;;;;;20.31;50.19;100145.72;4991495;28;20549;-73
2022/06/01 11:17:00;;;;;;;3.77;1.70;;;;;;;20.32;49.98;100145.28;5015016;28;20426;-73
2022/06/01 11:19:47;;;;;;;6.87;2.10;;;;;;;20.33;50.00;100135.50;4985172;28;20462;-73
2022/06/01 11:22:37;;;;;;;3.10;1.87;;;;;;;20.35;49.98;100135.91;4994470;28;20415;-71
2022/06/01 11:25:32;;;;;;;2.73;1.70;;;;;;;20.33;49.44;100129.75;5011979;28;20515;-73
2022/06/01 11:28:27;;;;;;;4.07;2.40;;;;;;;20.37;49.76;100124.84;4961138;28;20417;-73
2022/06/01 11:31:04;;;;;;;8.23;2.20;;;;;;;20.38;49.66;100125.69;4974510;28;20410;-73
2022/06/01 11:33:43;;;;;;;3.67;2.00;;;;;;;20.42;49.42;100124.47;4990944;28;20453;-73
2022/06/01 11:36:32;;;;;;;3.10;1.93;;;;;;;20.41;49.43;100119.97;4992353;28;20436;-73
2022/06/01 11:39:15;;;;;;;4.00;1.80;;;;;;;20.39;49.53;100119.56;4992040;28;20409;-73
2022/06/01 11:41:47;;;;;;;7.87;2.40;;;;;;;20.40;49.47;100126.94;4992434;28;20837;-73
2022/06/01 11:44:18;;;;;;;3.10;1.90;;;;;;;20.44;49.56;100127.78;4990743;28;20512;-71
2022/06/01 11:46:55;;;;;;;4.80;2.17;;;;;;;20.44;49.80;100115.47;4974909;28;20402;-73
2022/06/01 11:49:40;;;;;;;11.00;2.30;;;;;;;20.43;49.74;100110.97;4990499;28;20488;-71
2022/06/01 11:52:24;;;;;;;4.70;2.37;;;;;;;20.41;49.41;100117.09;4974244;28;20504;-73
2022/06/01 11:55:15;;;;;;;3.97;1.83;;;;;;;20.43;49.28;100120.41;4988624;28;20428;-73
2022/06/01 11:57:44;;;;;;;5.30;1.93;;;;;;;20.45;49.08;100120.00;4973842;28;20439;-71
2022/06/01 12:00:19;;;;;;;3.10;1.60;;;;;;;20.44;48.65;100115.47;5011186;28;20421;-74
2022/06/01 12:02:45;;;;;;;5.60;2.10;;;;;;;20.43;48.83;100120.41;5006673;28;20420;-71